createdAt,value
2023-05-19T00:02:21.017Z,102789.94
2023-05-19T00:04:48.450Z,102781.84
2023-05-19T00:07:18.075Z,102773.75
2023-05-19T00:09:45.340Z,102774.28
2023-05-19T00:12:12.594Z,102779.91
2023-05-19T00:14:39.902Z,102775.34
2023-05-19T00:17:07.921Z,102780.31
2023-05-19T00:19:35.336Z,102778.19
2023-05-19T00:22:02.432Z,102782.69
2023-05-19T00:24:29.250Z,102783.19
2023-05-19T00:26:56.038Z,102782.19
2023-05-19T00:29:23.021Z,102786.28
2023-05-19T00:31:50.050Z,102779.84
2023-05-19T00:34:16.985Z,102779.19
2023-05-19T00:36:43.979Z,102773.94
2023-05-19T00:39:10.966Z,102773.19
2023-05-19T00:41:37.817Z,102773.78
2023-05-19T00:44:04.759Z,102770.09
2023-05-19T00:46:31.643Z,102769.19
2023-05-19T00:48:58.501Z,102768.97
2023-05-19T00:51:26.914Z,102765.31
2023-05-19T00:53:53.960Z,102771.09
2023-05-19T00:56:22.587Z,102766.53
2023-05-19T00:58:51.016Z,102769.13
2023-05-19T01:01:19.000Z,102774.03
2023-05-19T01:03:47.347Z,102780.56
2023-05-19T01:06:15.063Z,102783.19
2023-05-19T01:08:42.359Z,102776.47
2023-05-19T01:11:09.258Z,102781.56
2023-05-19T01:13:36.614Z,102772.88
2023-05-19T01:16:22.373Z,102766.03
2023-05-19T01:19:04.695Z,102773.06
2023-05-19T01:21:36.660Z,102766.84
2023-05-19T01:24:22.827Z,102771.19
2023-05-19T01:27:04.200Z,102769.31
2023-05-19T01:29:49.792Z,102765.47
2023-05-19T01:32:18.304Z,102770.78
2023-05-19T01:34:46.352Z,102773.84
2023-05-19T01:37:13.827Z,102764.88
2023-05-19T01:39:41.632Z,102771.09
2023-05-19T01:42:08.912Z,102767.75
2023-05-19T01:44:36.142Z,102768.34
2023-05-19T01:47:03.535Z,102768.03
2023-05-19T01:49:30.490Z,102766.91
2023-05-19T01:51:57.446Z,102769.81
2023-05-19T01:54:24.265Z,102769.13
2023-05-19T01:57:00.131Z,102770.41
2023-05-19T01:59:42.185Z,102765.75
2023-05-19T02:02:17.168Z,102769.16
2023-05-19T02:04:46.244Z,102764.84
2023-05-19T02:07:15.649Z,102762.19
2023-05-19T02:09:53.997Z,102758.50
2023-05-19T02:12:34.970Z,102753.50
2023-05-19T02:15:07.954Z,102761.56
2023-05-19T02:17:36.394Z,102761.28
2023-05-19T02:20:04.653Z,102763.47
2023-05-19T02:22:32.234Z,102761.97
2023-05-19T02:24:59.265Z,102755.75
2023-05-19T02:27:26.402Z,102756.34
2023-05-19T02:29:53.638Z,102751.78
2023-05-19T02:32:20.932Z,102751.78
2023-05-19T02:34:48.351Z,102745.88
2023-05-19T02:37:15.672Z,102749.63
2023-05-19T02:39:42.936Z,102757.16
2023-05-19T02:42:10.216Z,102757.00
2023-05-19T02:44:37.374Z,102752.56
2023-05-19T02:47:04.354Z,102755.91
2023-05-19T02:49:36.211Z,102755.91
2023-05-19T02:52:06.421Z,102746.69
2023-05-19T02:54:33.974Z,102745.63
2023-05-19T02:57:01.461Z,102748.78
2023-05-19T02:59:28.742Z,102737.16
2023-05-19T03:01:56.786Z,102740.66
2023-05-19T03:04:23.665Z,102746.22
2023-05-19T03:06:50.584Z,102738.66
2023-05-19T03:09:17.533Z,102734.09
2023-05-19T03:11:44.662Z,102729.91
2023-05-19T03:14:14.307Z,102727.88
2023-05-19T03:16:42.446Z,102712.16
2023-05-19T03:19:09.906Z,102738.19
2023-05-19T03:21:37.526Z,102730.03
2023-05-19T03:24:05.231Z,102729.91
2023-05-19T03:26:35.510Z,102720.72
2023-05-19T03:29:02.456Z,102727.69
2023-05-19T03:31:30.647Z,102735.75
2023-05-19T03:33:57.928Z,102733.16
2023-05-19T03:36:24.934Z,102723.59
2023-05-19T03:38:51.758Z,102730.81
2023-05-19T03:41:18.752Z,102734.19
2023-05-19T03:43:45.681Z,102727.03
2023-05-19T03:46:12.703Z,102736.56
2023-05-19T03:48:39.547Z,102736.75
2023-05-19T03:51:06.398Z,102732.81
2023-05-19T03:53:33.307Z,102736.69
2023-05-19T03:56:00.611Z,102728.66
2023-05-19T03:58:27.508Z,102743.00
2023-05-19T04:00:54.634Z,102733.31
2023-05-19T04:03:21.804Z,102738.84
2023-05-19T04:05:48.705Z,102737.69
2023-05-19T04:08:16.111Z,102744.06
2023-05-19T04:10:42.924Z,102744.78
2023-05-19T04:13:09.755Z,102738.75
2023-05-19T04:15:36.595Z,102740.97
2023-05-19T04:18:03.869Z,102743.34
2023-05-19T04:20:31.008Z,102733.44
2023-05-19T04:22:58.076Z,102742.44
2023-05-19T04:25:25.433Z,102746.25
2023-05-19T04:27:53.069Z,102740.75
2023-05-19T04:30:22.569Z,102746.84
2023-05-19T04:32:52.359Z,102745.06
2023-05-19T04:35:19.641Z,102743.19
2023-05-19T04:37:46.788Z,102750.19
2023-05-19T04:40:13.710Z,102759.59
2023-05-19T04:42:45.872Z,102751.16
2023-05-19T04:45:14.144Z,102755.75
2023-05-19T04:50:11.159Z,102759.88
2023-05-19T04:52:38.070Z,102758.00
2023-05-19T04:55:05.381Z,102751.41
2023-05-19T04:57:32.344Z,102744.66
2023-05-19T05:00:00.387Z,102755.56
2023-05-19T05:02:28.403Z,102765.91
2023-05-19T05:04:56.656Z,102762.81
2023-05-19T05:07:23.762Z,102762.97
2023-05-19T05:09:50.701Z,102763.97
2023-05-19T05:12:18.685Z,102765.94
2023-05-19T05:14:45.905Z,102763.59
2023-05-19T05:17:13.769Z,102762.72
2023-05-19T05:19:40.805Z,102762.56
2023-05-19T05:22:07.876Z,102758.47
2023-05-19T05:24:35.028Z,102769.09
2023-05-19T05:27:02.071Z,102768.63
2023-05-19T05:29:29.327Z,102760.41
2023-05-19T05:31:56.153Z,102756.66
2023-05-19T05:34:23.305Z,102764.03
2023-05-19T05:36:50.180Z,102767.94
2023-05-19T05:39:17.292Z,102770.38
2023-05-19T05:41:44.541Z,102772.66
2023-05-19T05:44:11.708Z,102773.72
2023-05-19T05:46:38.797Z,102772.16
2023-05-19T05:49:05.920Z,102775.09
2023-05-19T05:51:34.171Z,102775.72
2023-05-19T05:54:02.015Z,102780.13
2023-05-19T05:56:29.267Z,102781.75
2023-05-19T05:58:57.164Z,102772.59
2023-05-19T06:01:25.986Z,102780.66
2023-05-19T06:03:52.907Z,102778.84
2023-05-19T06:06:20.069Z,102782.19
2023-05-19T06:08:47.013Z,102778.38
2023-05-19T06:11:13.909Z,102770.34
2023-05-19T06:13:43.565Z,102777.97
2023-05-19T06:16:10.620Z,102762.78
2023-05-19T06:18:37.752Z,102778.03
2023-05-19T06:21:04.728Z,102772.09
2023-05-19T06:23:31.853Z,102769.16
2023-05-19T06:25:58.807Z,102768.09
2023-05-19T06:28:25.732Z,102776.78
2023-05-19T06:30:52.830Z,102775.69
2023-05-19T06:33:19.666Z,102775.69
2023-05-19T06:35:46.479Z,102775.16
2023-05-19T06:38:13.339Z,102775.41
2023-05-19T06:40:40.870Z,102777.56
2023-05-19T06:43:07.799Z,102776.75
2023-05-19T06:45:34.934Z,102776.69
2023-05-19T06:48:01.966Z,102774.84
2023-05-19T06:50:28.956Z,102784.34
2023-05-19T06:52:57.221Z,102777.31
2023-05-19T06:55:24.441Z,102781.34
2023-05-19T06:57:51.422Z,102776.22
2023-05-19T07:00:20.624Z,102778.09
2023-05-19T07:02:49.018Z,102777.28
2023-05-19T07:05:16.084Z,102775.09
2023-05-19T07:07:43.567Z,102769.97
2023-05-19T07:10:11.245Z,102772.69
2023-05-19T07:12:38.316Z,102783.75
2023-05-19T07:15:05.479Z,102771.50
2023-05-19T07:17:32.362Z,102785.06
2023-05-19T07:19:59.594Z,102779.56
2023-05-19T07:22:26.450Z,102779.81
2023-05-19T07:24:53.301Z,102779.72
2023-05-19T07:27:20.175Z,102778.84
2023-05-19T07:29:47.427Z,102774.94
2023-05-19T07:32:14.504Z,102774.69
2023-05-19T07:34:42.204Z,102758.88
2023-05-19T07:37:09.424Z,102762.63
2023-05-19T07:39:36.398Z,102760.88
2023-05-19T07:42:03.376Z,102757.81
2023-05-19T07:44:31.447Z,102758.00
2023-05-19T07:46:58.296Z,102760.53
2023-05-19T07:49:25.270Z,102759.09
2023-05-19T07:51:52.226Z,102761.91
2023-05-19T07:54:20.712Z,102764.94
2023-05-19T07:56:48.234Z,102763.47
2023-05-19T07:59:16.552Z,102765.06
2023-05-19T08:01:43.687Z,102769.56
2023-05-19T08:04:12.981Z,102758.44
2023-05-19T08:06:40.235Z,102761.38
2023-05-19T08:09:07.773Z,102765.50
2023-05-19T08:11:34.709Z,102762.69
2023-05-19T08:14:01.656Z,102760.78
2023-05-19T08:16:28.588Z,102756.22
2023-05-19T08:18:55.820Z,102768.34
2023-05-19T08:21:22.663Z,102760.91
2023-05-19T08:23:49.850Z,102763.34
2023-05-19T08:26:17.065Z,102753.28
2023-05-19T08:28:44.303Z,102758.03
2023-05-19T08:31:11.706Z,102755.34
2023-05-19T08:33:38.938Z,102748.53
2023-05-19T08:36:06.929Z,102760.00
2023-05-19T08:38:33.882Z,102757.88
2023-05-19T08:41:00.821Z,102752.44
2023-05-19T08:43:27.823Z,102750.88
2023-05-19T08:45:55.613Z,102743.66
2023-05-19T08:48:22.620Z,102741.88
2023-05-19T08:51:04.337Z,102733.59
2023-05-19T08:53:37.101Z,102736.44
2023-05-19T08:56:23.204Z,102739.28
2023-05-19T08:58:50.873Z,102731.78
2023-05-19T09:01:18.338Z,102730.56
2023-05-19T09:03:46.803Z,102730.06
2023-05-19T09:06:14.228Z,102716.09
2023-05-19T09:08:42.278Z,102708.97
2023-05-19T09:11:10.198Z,102703.91
2023-05-19T09:13:37.608Z,102708.63
2023-05-19T09:16:04.777Z,102713.19
2023-05-19T09:18:32.287Z,102721.34
2023-05-19T09:21:00.478Z,102716.88
2023-05-19T09:23:31.717Z,102710.25
2023-05-19T09:26:02.029Z,102700.16
2023-05-19T09:28:31.078Z,102699.13
2023-05-19T09:31:04.451Z,102692.00
2023-05-19T09:33:33.715Z,102685.94
2023-05-19T09:36:01.497Z,102689.56
2023-05-19T09:38:28.413Z,102689.94
2023-05-19T09:40:59.125Z,102708.44
2023-05-19T09:43:29.787Z,102689.69
2023-05-19T09:46:12.774Z,102704.03
2023-05-19T09:48:41.344Z,102697.16
2023-05-19T09:51:10.370Z,102693.19
2023-05-19T09:53:38.801Z,102693.19
2023-05-19T09:56:06.121Z,102686.56
2023-05-19T09:58:36.784Z,102688.75
2023-05-19T10:01:04.399Z,102692.31
2023-05-19T10:03:32.931Z,102680.53
2023-05-19T10:06:01.307Z,102681.41
2023-05-19T10:08:30.525Z,102682.34
2023-05-19T10:10:57.866Z,102683.81
2023-05-19T10:13:25.452Z,102680.31
2023-05-19T10:18:23.090Z,102667.22
2023-05-19T10:20:50.134Z,102664.75
2023-05-19T10:23:17.171Z,102655.22
2023-05-19T10:25:44.529Z,102648.97
2023-05-19T10:28:17.322Z,102644.06
2023-05-19T10:30:49.475Z,102646.56
2023-05-19T10:33:18.170Z,102649.81
2023-05-19T10:35:51.215Z,102654.34
2023-05-19T10:38:34.070Z,102642.25
2023-05-19T10:41:03.986Z,102637.53
2023-05-19T10:43:33.833Z,102646.63
2023-05-19T10:46:00.999Z,102649.28
2023-05-19T10:48:32.924Z,102652.97
2023-05-19T10:50:59.739Z,102641.81
2023-05-19T10:53:31.171Z,102645.13
2023-05-19T10:56:02.705Z,102642.56
2023-05-19T10:58:39.726Z,102634.31
2023-05-19T11:01:16.949Z,102630.94
2023-05-19T11:03:48.545Z,102630.94
2023-05-19T11:06:22.145Z,102632.00
2023-05-19T11:08:52.898Z,102629.66
2023-05-19T11:11:19.943Z,102621.63
2023-05-19T11:13:48.031Z,102615.97
2023-05-19T11:16:15.198Z,102606.75
2023-05-19T11:18:42.688Z,102616.91
2023-05-19T11:21:09.617Z,102608.97
2023-05-19T11:23:40.004Z,102624.75
2023-05-19T11:26:07.711Z,102627.50
2023-05-19T11:28:35.342Z,102623.88
2023-05-19T11:31:02.554Z,102616.72
2023-05-19T11:33:32.660Z,102611.28
2023-05-19T11:35:59.715Z,102621.34
2023-05-19T11:38:28.566Z,102607.59
2023-05-19T11:40:56.508Z,102631.44
2023-05-19T11:43:24.278Z,102619.22
2023-05-19T11:45:51.505Z,102619.25
2023-05-19T11:48:20.932Z,102620.34
2023-05-19T11:50:48.127Z,102597.44
2023-05-19T11:53:16.409Z,102604.59
2023-05-19T11:55:46.317Z,102586.34
2023-05-19T11:58:13.898Z,102589.34
2023-05-19T12:00:42.012Z,102590.97
2023-05-19T12:03:09.701Z,102591.25
2023-05-19T12:05:40.756Z,102594.66
2023-05-19T12:08:09.111Z,102607.00
2023-05-19T12:10:36.403Z,102608.00
2023-05-19T12:13:03.701Z,102597.78
2023-05-19T12:15:31.570Z,102593.53
2023-05-19T12:17:59.863Z,102590.75
2023-05-19T12:20:27.909Z,102600.56
2023-05-19T12:22:55.639Z,102606.09
2023-05-19T12:25:23.258Z,102589.91
2023-05-19T12:27:52.790Z,102592.22
2023-05-19T12:30:25.402Z,102588.00
2023-05-19T12:32:53.557Z,102593.06
2023-05-19T12:35:20.790Z,102596.78
2023-05-19T12:37:49.814Z,102588.91
2023-05-19T12:40:17.329Z,102578.63
2023-05-19T12:42:45.407Z,102588.16
2023-05-19T12:45:12.786Z,102589.00
2023-05-19T12:47:39.800Z,102591.00
2023-05-19T12:50:10.262Z,102581.00
2023-05-19T12:52:47.223Z,102588.03
2023-05-19T12:55:16.319Z,102587.72
2023-05-19T12:57:50.695Z,102600.88
2023-05-19T13:00:20.882Z,102598.47
2023-05-19T13:02:58.027Z,102604.53
2023-05-19T13:05:25.041Z,102604.50
2023-05-19T13:07:56.611Z,102601.94
2023-05-19T13:10:23.900Z,102592.25
2023-05-19T13:12:51.797Z,102597.47
2023-05-19T13:15:18.820Z,102603.22
2023-05-19T13:17:46.597Z,102599.53
2023-05-19T13:20:13.797Z,102596.56
2023-05-19T13:22:41.214Z,102605.72
2023-05-19T13:25:09.878Z,102589.72
2023-05-19T13:27:36.975Z,102594.22
2023-05-19T13:30:04.956Z,102600.56
2023-05-19T13:32:31.934Z,102592.09
2023-05-19T13:34:59.288Z,102578.56
2023-05-19T13:37:26.279Z,102574.13
2023-05-19T13:39:53.159Z,102560.94
2023-05-19T13:42:20.216Z,102568.69
2023-05-19T13:44:47.573Z,102569.78
2023-05-19T13:47:14.993Z,102572.59
2023-05-19T13:49:42.398Z,102569.31
2023-05-19T13:52:09.441Z,102564.13
2023-05-19T13:54:36.548Z,102568.69
2023-05-19T13:57:03.813Z,102573.38
2023-05-19T13:59:31.328Z,102571.44
2023-05-19T14:01:58.213Z,102570.81
2023-05-19T14:04:25.431Z,102567.44
2023-05-19T14:06:52.704Z,102579.97
2023-05-19T14:09:19.943Z,102570.19
2023-05-19T14:11:47.447Z,102572.94
2023-05-19T14:14:14.581Z,102566.09
2023-05-19T14:16:42.108Z,102554.28
2023-05-19T14:19:09.097Z,102560.84
2023-05-19T14:21:37.013Z,102557.16
2023-05-19T14:24:04.132Z,102564.00
2023-05-19T14:26:31.266Z,102555.44
2023-05-19T14:28:58.702Z,102557.16
2023-05-19T14:31:25.943Z,102560.47
2023-05-19T14:33:53.831Z,102547.78
2023-05-19T14:36:21.365Z,102558.19
2023-05-19T14:38:48.346Z,102563.19
2023-05-19T14:41:15.612Z,102558.41
2023-05-19T14:43:43.559Z,102537.06
2023-05-19T14:46:10.923Z,102534.34
2023-05-19T14:48:37.783Z,102541.50
2023-05-19T14:51:04.834Z,102539.94
2023-05-19T14:53:32.394Z,102550.91
2023-05-19T14:55:59.665Z,102535.06
2023-05-19T14:58:29.305Z,102549.06
2023-05-19T15:01:00.013Z,102540.94
2023-05-19T15:03:27.370Z,102543.78
2023-05-19T15:05:54.566Z,102533.16
2023-05-19T15:08:22.187Z,102547.72
2023-05-19T15:10:50.582Z,102542.09
2023-05-19T15:13:19.226Z,102546.47
2023-05-19T15:15:46.454Z,102543.00
2023-05-19T15:18:16.074Z,102539.03
2023-05-19T15:20:43.713Z,102535.78
2023-05-19T15:23:11.083Z,102537.44
2023-05-19T15:25:39.229Z,102538.59
2023-05-19T15:28:06.844Z,102538.38
2023-05-19T15:30:36.165Z,102532.09
2023-05-19T15:33:04.244Z,102544.63
2023-05-19T15:35:31.503Z,102545.44
2023-05-19T15:38:05.406Z,102546.84
2023-05-19T15:40:34.674Z,102553.81
2023-05-19T15:43:02.565Z,102557.28
2023-05-19T15:45:30.351Z,102557.59
2023-05-19T15:47:58.112Z,102556.72
2023-05-19T15:50:26.407Z,102547.59
2023-05-19T15:52:53.629Z,102546.19
2023-05-19T15:55:21.029Z,102535.06
2023-05-19T15:57:48.223Z,102539.75
2023-05-19T16:00:19.596Z,102528.06
2023-05-19T16:02:47.396Z,102526.88
2023-05-19T16:05:14.482Z,102529.25
2023-05-19T16:07:42.566Z,102523.66
2023-05-19T16:10:11.478Z,102529.47
2023-05-19T16:12:38.413Z,102530.78
2023-05-19T16:15:06.563Z,102523.97
2023-05-19T16:17:35.504Z,102533.28
2023-05-19T16:20:03.423Z,102526.81
2023-05-19T16:22:31.205Z,102513.63
2023-05-19T16:24:58.657Z,102510.25
2023-05-19T16:27:25.724Z,102517.25
2023-05-19T16:29:53.537Z,102508.06
2023-05-19T16:32:21.335Z,102510.44
2023-05-19T16:34:48.320Z,102502.91
2023-05-19T16:37:16.137Z,102499.28
2023-05-19T16:39:44.042Z,102498.19
2023-05-19T16:42:11.088Z,102494.53
2023-05-19T16:44:37.957Z,102495.13
2023-05-19T16:47:04.940Z,102497.75
2023-05-19T16:49:33.575Z,102501.66
2023-05-19T16:52:00.765Z,102492.84
2023-05-19T16:54:28.970Z,102507.50
2023-05-19T16:56:56.219Z,102498.47
2023-05-19T16:59:23.175Z,102499.34
2023-05-19T17:01:52.040Z,102497.31
2023-05-19T17:04:20.601Z,102495.34
2023-05-19T17:06:48.014Z,102506.28
2023-05-19T17:09:15.506Z,102500.13
2023-05-19T17:11:44.749Z,102495.22
2023-05-19T17:14:12.831Z,102498.81
2023-05-19T17:16:41.590Z,102502.53
2023-05-19T17:19:10.203Z,102485.97
2023-05-19T17:21:39.086Z,102479.63
2023-05-19T17:24:07.618Z,102481.75
2023-05-19T17:26:36.527Z,102486.19
2023-05-19T17:29:04.201Z,102472.59
2023-05-19T17:31:32.189Z,102482.63
2023-05-19T17:34:02.081Z,102492.09
2023-05-19T17:36:30.241Z,102484.72
2023-05-19T17:38:59.794Z,102492.22
2023-05-19T17:41:27.832Z,102489.03
2023-05-19T17:43:55.064Z,102496.69
2023-05-19T17:46:23.372Z,102487.84
2023-05-19T17:48:51.469Z,102482.34
2023-05-19T17:51:20.607Z,102494.75
2023-05-19T17:53:49.977Z,102495.38
2023-05-19T17:56:19.689Z,102502.13
2023-05-19T17:58:47.256Z,102500.94
2023-05-19T18:01:15.798Z,102506.38
2023-05-19T18:03:49.071Z,102507.13
2023-05-19T18:06:18.755Z,102502.31
2023-05-19T18:08:51.848Z,102510.34
2023-05-19T18:11:20.049Z,102502.03
2023-05-19T18:13:47.808Z,102507.91
2023-05-19T18:16:16.311Z,102512.66
2023-05-19T18:18:47.191Z,102517.69
2023-05-19T18:21:17.845Z,102524.09
2023-05-19T18:23:45.697Z,102520.09
2023-05-19T18:26:16.892Z,102526.00
2023-05-19T18:28:44.485Z,102526.00
2023-05-19T18:31:17.625Z,102522.47
2023-05-19T18:33:45.866Z,102523.69
2023-05-19T18:36:15.760Z,102526.69
2023-05-19T18:38:43.851Z,102530.72
2023-05-19T18:41:11.483Z,102531.63
2023-05-19T18:43:39.816Z,102534.13
2023-05-19T18:46:07.358Z,102536.75
2023-05-19T18:48:35.378Z,102543.75
2023-05-19T18:51:04.875Z,102536.50
2023-05-19T18:53:36.307Z,102536.56
2023-05-19T18:56:04.118Z,102545.31
2023-05-19T18:58:31.297Z,102545.09
2023-05-19T19:00:58.584Z,102551.94
2023-05-19T19:03:25.697Z,102553.56
2023-05-19T19:06:00.460Z,102552.28
2023-05-19T19:08:27.364Z,102563.56
2023-05-19T19:11:00.304Z,102562.31
2023-05-19T19:13:27.631Z,102561.13
2023-05-19T19:15:54.575Z,102561.41
2023-05-19T19:18:21.462Z,102564.84
2023-05-19T19:20:48.774Z,102563.84
2023-05-19T19:23:16.501Z,102563.50
2023-05-19T19:25:43.474Z,102567.25
2023-05-19T19:28:10.702Z,102576.88
2023-05-19T19:30:37.728Z,102574.69
2023-05-19T19:33:04.807Z,102583.31
2023-05-19T19:35:33.746Z,102580.56
2023-05-19T19:38:00.819Z,102587.63
2023-05-19T19:40:29.306Z,102588.59
2023-05-19T19:42:56.273Z,102587.78
2023-05-19T19:45:23.203Z,102579.06
2023-05-19T19:47:50.310Z,102573.22
2023-05-19T19:50:17.549Z,102583.69
2023-05-19T19:52:44.614Z,102576.88
2023-05-19T19:55:12.275Z,102574.22
2023-05-19T19:57:39.340Z,102577.13
2023-05-19T20:00:09.234Z,102577.94
2023-05-19T20:02:45.463Z,102576.97
2023-05-19T20:05:25.201Z,102580.22
2023-05-19T20:07:52.407Z,102585.38
2023-05-19T20:10:19.390Z,102577.50
2023-05-19T20:12:50.081Z,102580.81
2023-05-19T20:15:17.308Z,102587.06
2023-05-19T20:17:44.231Z,102585.50
2023-05-19T20:20:12.308Z,102591.78
2023-05-19T20:22:39.238Z,102598.03
2023-05-19T20:25:06.555Z,102593.44
2023-05-19T20:27:33.588Z,102605.97
2023-05-19T20:30:00.861Z,102598.16
2023-05-19T20:32:28.089Z,102610.47
2023-05-19T20:34:54.958Z,102589.75
2023-05-19T20:37:22.401Z,102604.69
2023-05-19T20:39:49.310Z,102603.59
2023-05-19T20:42:16.169Z,102607.00
2023-05-19T20:44:43.529Z,102605.34
2023-05-19T20:47:10.645Z,102607.03
2023-05-19T20:49:37.893Z,102613.06
2023-05-19T20:52:04.941Z,102609.06
2023-05-19T20:54:31.951Z,102606.88
2023-05-19T20:56:58.772Z,102604.63
2023-05-19T20:59:26.120Z,102616.09
2023-05-19T21:01:53.042Z,102604.78
2023-05-19T21:04:20.166Z,102601.63
2023-05-19T21:06:47.083Z,102608.03
2023-05-19T21:09:14.741Z,102614.28
2023-05-19T21:11:41.683Z,102620.06
2023-05-19T21:14:08.617Z,102610.88
2023-05-19T21:16:39.130Z,102603.81
2023-05-19T21:19:06.975Z,102599.53
2023-05-19T21:21:34.321Z,102603.91
2023-05-19T21:24:01.469Z,102607.25
2023-05-19T21:26:28.495Z,102613.22
2023-05-19T21:28:55.335Z,102606.19
2023-05-19T21:31:22.431Z,102608.44
2023-05-19T21:33:49.487Z,102606.84
2023-05-19T21:36:16.936Z,102615.88
2023-05-19T21:38:43.914Z,102618.84
2023-05-19T21:41:11.445Z,102614.59
2023-05-19T21:43:38.496Z,102617.81
2023-05-19T21:46:05.694Z,102618.13
2023-05-19T21:48:32.620Z,102620.06
2023-05-19T21:50:59.528Z,102616.50
2023-05-19T21:53:26.713Z,102624.13
2023-05-19T21:55:53.625Z,102619.81
2023-05-19T21:58:22.782Z,102623.59
2023-05-19T22:00:51.508Z,102627.44
2023-05-19T22:03:18.685Z,102622.03
2023-05-19T22:05:49.308Z,102634.47
2023-05-19T22:08:17.213Z,102629.03
2023-05-19T22:10:44.409Z,102631.78
2023-05-19T22:13:12.106Z,102628.81
2023-05-19T22:15:39.601Z,102632.34
2023-05-19T22:18:07.289Z,102638.84
2023-05-19T22:20:34.793Z,102634.53
2023-05-19T22:23:03.686Z,102625.88
2023-05-19T22:25:31.801Z,102631.56
2023-05-19T22:27:59.723Z,102636.41
2023-05-19T22:30:27.003Z,102621.28
2023-05-19T22:32:53.960Z,102641.06
2023-05-19T22:35:21.555Z,102641.84
2023-05-19T22:37:49.004Z,102641.59
2023-05-19T22:40:16.187Z,102641.84
2023-05-19T22:42:43.213Z,102647.28
2023-05-19T22:45:10.230Z,102642.94
2023-05-19T22:47:37.317Z,102644.59
2023-05-19T22:50:04.275Z,102638.91
2023-05-19T22:52:31.195Z,102641.88
2023-05-19T22:54:58.374Z,102637.53
2023-05-19T22:57:25.652Z,102636.44
2023-05-19T22:59:52.495Z,102641.31
2023-05-19T23:02:19.870Z,102644.59
2023-05-19T23:04:46.869Z,102636.44
2023-05-19T23:07:15.788Z,102632.66
2023-05-19T23:09:43.055Z,102642.94
2023-05-19T23:12:10.000Z,102638.59
2023-05-19T23:14:36.893Z,102638.06
2023-05-19T23:17:03.897Z,102641.31
2023-05-19T23:19:33.224Z,102646.41
2023-05-19T23:22:00.203Z,102646.19
2023-05-19T23:24:27.200Z,102652.66
2023-05-19T23:26:54.543Z,102659.44
2023-05-19T23:29:21.445Z,102650.47
2023-05-19T23:31:48.323Z,102663.25
2023-05-19T23:34:15.931Z,102663.19
2023-05-19T23:36:42.851Z,102664.00
2023-05-19T23:39:10.210Z,102658.84
2023-05-19T23:41:37.303Z,102649.66
2023-05-19T23:44:04.277Z,102661.81
2023-05-19T23:46:31.491Z,102657.44
2023-05-19T23:48:58.524Z,102661.78
2023-05-19T23:51:25.547Z,102664.75
2023-05-19T23:53:53.062Z,102660.72
2023-05-19T23:56:19.954Z,102661.78
2023-05-19T23:58:46.962Z,102667.19
